地図

経路データ

SID SEASON NUMBER BASIN SUBBASIN NAME ISO_TIME NATURE LAT LON WMO_WIND WMO_PRES WMO_AGENCY TRACK_TYPE DIST2LAND LANDFALL IFLAG USA_AGENCY USA_ATCF_ID USA_LAT USA_LON USA_RECORD USA_STATUS USA_WIND USA_PRES USA_SSHS USA_R34_NE USA_R34_SE USA_R34_SW USA_R34_NW USA_R50_NE USA_R50_SE USA_R50_SW USA_R50_NW USA_R64_NE USA_R64_SE USA_R64_SW USA_R64_NW USA_POCI USA_ROCI USA_RMW USA_EYE TOKYO_LAT TOKYO_LON TOKYO_GRADE TOKYO_WIND TOKYO_PRES TOKYO_R50_DIR TOKYO_R50_LONG TOKYO_R50_SHORT TOKYO_R30_DIR TOKYO_R30_LONG TOKYO_R30_SHORT TOKYO_LAND CMA_LAT CMA_LON CMA_CAT CMA_WIND CMA_PRES HKO_LAT HKO_LON HKO_CAT HKO_WIND HKO_PRES NEWDELHI_LAT NEWDELHI_LON NEWDELHI_GRADE NEWDELHI_WIND NEWDELHI_PRES NEWDELHI_CI NEWDELHI_DP NEWDELHI_POCI REUNION_LAT REUNION_LON REUNION_TYPE REUNION_WIND REUNION_PRES REUNION_TNUM REUNION_CI REUNION_RMW REUNION_R34_NE REUNION_R34_SE REUNION_R34_SW REUNION_R34_NW REUNION_R50_NE REUNION_R50_SE REUNION_R50_SW REUNION_R50_NW REUNION_R64_NE REUNION_R64_SE REUNION_R64_SW REUNION_R64_NW BOM_LAT BOM_LON BOM_TYPE BOM_WIND BOM_PRES BOM_TNUM BOM_CI BOM_RMW BOM_R34_NE BOM_R34_SE BOM_R34_SW BOM_R34_NW BOM_R50_NE BOM_R50_SE BOM_R50_SW BOM_R50_NW BOM_R64_NE BOM_R64_SE BOM_R64_SW BOM_R64_NW BOM_ROCI BOM_POCI BOM_EYE BOM_POS_METHOD BOM_PRES_METHOD NADI_LAT NADI_LON NADI_CAT NADI_WIND NADI_PRES WELLINGTON_LAT WELLINGTON_LON WELLINGTON_WIND WELLINGTON_PRES DS824_LAT DS824_LON DS824_STAGE DS824_WIND DS824_PRES TD9636_LAT TD9636_LON TD9636_STAGE TD9636_WIND TD9636_PRES TD9635_LAT TD9635_LON TD9635_WIND TD9635_PRES TD9635_ROCI NEUMANN_LAT NEUMANN_LON NEUMANN_CLASS NEUMANN_WIND NEUMANN_PRES MLC_LAT MLC_LON MLC_CLASS MLC_WIND MLC_PRES USA_GUST BOM_GUST BOM_GUST_PER REUNION_GUST REUNION_GUST_PER USA_SEAHGT USA_SEARAD_NE USA_SEARAD_SE USA_SEARAD_SW USA_SEARAD_NW STORM_SPEED STORM_DIR
1926100S13062 1926 16 SI MM NOT_NAMED 1926-04-10 00:00:00 TS -12.5000 62.3000 main 981 956 _________O____ -1 -12.5000 62.3000 TC 25 8 248
1926100S13062 1926 16 SI MM NOT_NAMED 1926-04-10 03:00:00 TS -12.6426 61.9376 main 951 916 _________P____ -1 -12.6426 61.9376 TC 25 7 246
1926100S13062 1926 16 SI MM NOT_NAMED 1926-04-10 06:00:00 TS -12.8000 61.6000 main 916 882 _________O____ -1 -12.8000 61.6000 TC 25 7 241
1926100S13062 1926 16 SI MM NOT_NAMED 1926-04-10 09:00:00 TS -12.9849 61.2999 main 882 848 _________P____ -1 -12.9849 61.2999 TC 25 7 236
1926100S13062 1926 16 SI MM NOT_NAMED 1926-04-10 12:00:00 TS -13.2000 61.0000 main 848 814 _________O____ -1 -13.2000 61.0000 TC 25 8 234
1926100S13062 1926 16 SI MM NOT_NAMED 1926-04-10 15:00:00 TS -13.4425 60.6575 main 814 767 _________P____ -1 -13.4425 60.6575 TC 25 8 234
1926100S13062 1926 16 SI MM NOT_NAMED 1926-04-10 18:00:00 TS -13.7000 60.3000 main 767 735 _________O____ -1 -13.7000 60.3000 TC 25 9 234
1926100S13062 1926 16 SI MM NOT_NAMED 1926-04-10 21:00:00 TS -13.9500 59.9424 main 732 690 _________P____ -1 -13.9500 59.9424 TC 25 8 234
1926100S13062 1926 16 SI MM NOT_NAMED 1926-04-11 00:00:00 TS -14.2000 59.6000 main 690 660 _________O____ -1 -14.2000 59.6000 TC 25 8 233
1926100S13062 1926 16 SI MM NOT_NAMED 1926-04-11 03:00:00 TS -14.4350 59.2849 main 660 619 _________P____ -1 -14.4350 59.2849 TC 25 8 229
1926100S13062 1926 16 SI MM NOT_NAMED 1926-04-11 06:00:00 TS -14.7000 59.0000 main 619 580 _________O____ -1 -14.7000 59.0000 TC 25 8 223
1926100S13062 1926 16 SI MM NOT_NAMED 1926-04-11 09:00:00 TS -15.0125 58.7275 main 580 532 _________P____ -1 -15.0125 58.7275 TC 25 9 215
1926100S13062 1926 16 SI MM NOT_NAMED 1926-04-11 12:00:00 TS -15.4000 58.5000 main 532 485 _________O____ -1 -15.4000 58.5000 TC 25 10 204
1926100S13062 1926 16 SI MM NOT_NAMED 1926-04-11 15:00:00 TS -15.8775 58.3200 main 474 417 _________P____ -1 -15.8775 58.3200 TC 25 10 196
1926100S13062 1926 16 SI MM NOT_NAMED 1926-04-11 18:00:00 TS -16.4000 58.2000 main 417 360 _________O____ -1 -16.4000 58.2000 TC 25 11 190
1926100S13062 1926 16 SI MM NOT_NAMED 1926-04-11 21:00:00 TS -16.9225 58.1274 main 360 304 _________P____ -1 -16.9225 58.1274 TC 25 10 186
1926100S13062 1926 16 SI MM NOT_NAMED 1926-04-12 00:00:00 TS -17.4000 58.1000 main 304 260 _________O____ -1 -17.4000 58.1000 TC 25 9 183
1926100S13062 1926 16 SI MM NOT_NAMED 1926-04-12 03:00:00 TS -17.7800 58.0850 main 260 227 _________P____ -1 -17.7800 58.0850 TC 25 7 0
1926100S13062 1926 16 SI MM NOT_NAMED 1926-04-12 06:00:00 TS -18.1000 58.1000 main 227 194 _________O____ -1 -18.1000 58.1000 TC 25 6 176
1926100S13062 1926 16 SI MM NOT_NAMED 1926-04-12 09:00:00 TS -18.4075 58.1350 main 194 165 _________P____ -1 -18.4075 58.1350 TC 25 6 171
1926100S13062 1926 16 SI MM NOT_NAMED 1926-04-12 12:00:00 TS -18.7000 58.2000 main 165 138 _________O____ -1 -18.7000 58.2000 TC 25 6 166
1926100S13062 1926 16 SI MM NOT_NAMED 1926-04-12 15:00:00 TS -19.0000 58.2925 main 138 115 _________P____ -1 -19.0000 58.2925 TC 25 6 162
1926100S13062 1926 16 SI MM NOT_NAMED 1926-04-12 18:00:00 TS -19.3000 58.4000 main 115 100 _________O____ -1 -19.3000 58.4000 TC 25 6 162
1926100S13062 1926 16 SI MM NOT_NAMED 1926-04-12 21:00:00 TS -19.5925 58.4926 main 100 90 _________P____ -1 -19.5925 58.4926 TC 25 6 162
1926100S13062 1926 16 SI MM NOT_NAMED 1926-04-13 00:00:00 TS -19.9000 58.6000 main 94 89 _________O____ -1 -19.9000 58.6000 TC 25 7 161
1926100S13062 1926 16 SI MM NOT_NAMED 1926-04-13 03:00:00 TS -20.2500 58.7350 main 94 93 _________P____ -1 -20.2500 58.7350 TC 25 8 158
1926100S13062 1926 16 SI MM NOT_NAMED 1926-04-13 06:00:00 TS -20.6000 58.9000 main 119 119 _________O____ -1 -20.6000 58.9000 TC 25 7 153
1926100S13062 1926 16 SI MM NOT_NAMED 1926-04-13 09:00:00 TS -20.9075 59.1000 main 151 151 _________P____ -1 -20.9075 59.1000 TC 25 7 148
1926100S13062 1926 16 SI MM NOT_NAMED 1926-04-13 12:00:00 TS -21.2000 59.3000 main 183 183 _________O____ -1 -21.2000 59.3000 TC 25 7 151
1926100S13062 1926 16 SI MM NOT_NAMED 1926-04-13 15:00:00 TS -21.5074 59.4501 main 217 217 _________P____ -1 -21.5074 59.4501 TC 25 7 155
1926100S13062 1926 16 SI MM NOT_NAMED 1926-04-13 18:00:00 TS -21.8000 59.6000 main 244 244 _________O____ -1 -21.8000 59.6000 TC 25 6 151
1926100S13062 1926 16 SI MM NOT_NAMED 1926-04-13 21:00:00 TS -22.0574 59.7776 main 281 281 _________P____ -1 -22.0574 59.7776 TC 25 6 143
1926100S13062 1926 16 SI MM NOT_NAMED 1926-04-14 00:00:00 TS -22.3000 60.0000 main 311 311 _________O____ -1 -22.3000 60.0000 TC 25 7 136
1926100S13062 1926 16 SI MM NOT_NAMED 1926-04-14 03:00:00 TS -22.5425 60.2776 main 349 349 _________P____ -1 -22.5425 60.2776 TC 25 7 132
1926100S13062 1926 16 SI MM NOT_NAMED 1926-04-14 06:00:00 TS -22.8000 60.6000 main 394 394 _________O____ -1 -22.8000 60.6000 TC 25 8 132
1926100S13062 1926 16 SI MM NOT_NAMED 1926-04-14 09:00:00 TS -23.1000 60.9499 main 439 439 _________P____ -1 -23.1000 60.9499 TC 25 9 133
1926100S13062 1926 16 SI MM NOT_NAMED 1926-04-14 12:00:00 TS -23.4000 61.3000 main 492 492 _________O____ -1 -23.4000 61.3000 TC 25 8 133
1926100S13062 1926 16 SI MM NOT_NAMED 1926-04-14 15:00:00 TS -23.6498 61.6003 main 530 530 _________P____ -1 -23.6498 61.6003 TC 25 7 132
1926100S13062 1926 16 SI MM NOT_NAMED 1926-04-14 18:00:00 TS -23.9000 61.9000 main 575 575 _________O____ -1 -23.9000 61.9000 TC 25 8 133
1926100S13062 1926 16 SI MM NOT_NAMED 1926-04-14 21:00:00 TS -24.1877 62.2370 main 620 620 _________P____ -1 -24.1877 62.2370 TC 25 9 133
1926100S13062 1926 16 SI MM NOT_NAMED 1926-04-15 00:00:00 TS -24.5000 62.6000 main 673 _________O____ -1 -24.5000 62.6000 TC 25 9 133

IBTrACS Databaseについて

本データベースは、米国NOAAが公開する1842年以降の世界の熱帯低気圧のベストトラックデータアーカイブInternational Best Track Archive for Climate Stewardship (IBTrACS)を、ウェブで閲覧しやすい形式に変換したものです。

最終更新日:2021-10-21